createdAt,value
2018-03-01T00:02:00.243Z,93.10
2018-03-01T00:04:28.389Z,93.00
2018-03-01T00:06:56.519Z,93.20
2018-03-01T00:09:24.675Z,93.10
2018-03-01T00:11:52.807Z,93.20
2018-03-01T00:14:20.954Z,93.20
2018-03-01T00:16:49.087Z,93.10
2018-03-01T00:19:17.238Z,93.20
2018-03-01T00:21:45.365Z,93.20
2018-03-01T00:24:13.517Z,93.10
2018-03-01T00:26:41.646Z,93.10
2018-03-01T00:29:09.797Z,93.10
2018-03-01T00:31:37.922Z,93.40
2018-03-01T00:34:06.848Z,93.60
2018-03-01T00:36:34.973Z,93.50
2018-03-01T00:39:03.901Z,93.60
2018-03-01T00:41:32.030Z,93.60
2018-03-01T00:44:00.158Z,93.50
2018-03-01T00:46:28.305Z,93.50
2018-03-01T00:48:56.434Z,93.20
2018-03-01T00:51:24.585Z,93.30
2018-03-01T00:53:53.478Z,93.60
2018-03-01T00:56:21.628Z,93.60
2018-03-01T00:58:49.748Z,93.50
2018-03-01T01:01:17.897Z,93.50
2018-03-01T01:03:46.022Z,93.70
2018-03-01T01:06:14.177Z,93.60
2018-03-01T01:08:42.307Z,93.50
2018-03-01T01:11:10.471Z,93.60
2018-03-01T01:13:38.598Z,93.50
2018-03-01T01:16:06.755Z,93.60
2018-03-01T01:18:34.885Z,93.50
2018-03-01T01:21:03.037Z,93.70
2018-03-01T01:23:31.924Z,93.80
2018-03-01T01:26:00.078Z,93.60
2018-03-01T01:28:28.210Z,93.70
2018-03-01T01:30:56.367Z,93.80
2018-03-01T01:33:24.493Z,93.90
2018-03-01T01:35:52.645Z,93.80
2018-03-01T01:38:20.773Z,93.80
2018-03-01T01:40:48.931Z,93.70
2018-03-01T01:43:17.061Z,93.40
2018-03-01T01:45:45.225Z,93.20
2018-03-01T01:48:13.365Z,93.20
2018-03-01T01:50:54.114Z,93.40
2018-03-01T01:53:22.250Z,93.40
2018-03-01T01:55:50.413Z,93.40
2018-03-01T01:58:18.544Z,93.30
2018-03-01T02:00:47.444Z,93.30
2018-03-01T02:03:15.606Z,92.90
2018-03-01T02:05:44.508Z,93.50
2018-03-01T02:08:12.663Z,93.50
2018-03-01T02:10:40.790Z,93.50
2018-03-01T02:13:08.946Z,93.20
2018-03-01T02:15:37.082Z,93.20
2018-03-01T02:18:05.242Z,93.40
2018-03-01T02:20:33.378Z,93.60
2018-03-01T02:23:01.542Z,94.10
2018-03-01T02:25:29.673Z,94.30
2018-03-01T02:27:57.837Z,94.40
2018-03-01T02:30:25.967Z,94.40
2018-03-01T02:32:54.122Z,94.80
2018-03-01T02:35:22.261Z,95.20
2018-03-01T02:37:50.426Z,94.90
2018-03-01T02:40:18.563Z,94.90
2018-03-01T02:42:46.758Z,95.50
2018-03-01T02:45:14.873Z,95.50
2018-03-01T02:47:43.032Z,95.50
2018-03-01T02:50:11.168Z,95.00
2018-03-01T02:52:39.321Z,95.60
2018-03-01T02:55:07.466Z,95.60
2018-03-01T02:57:35.633Z,95.50
2018-03-01T03:00:04.536Z,95.40
2018-03-01T03:02:32.673Z,95.20
2018-03-01T03:05:00.820Z,95.50
2018-03-01T03:07:28.949Z,95.60
2018-03-01T03:09:57.111Z,95.60
2018-03-01T03:12:25.243Z,95.70
2018-03-01T03:14:53.399Z,96.30
2018-03-01T03:17:21.529Z,96.00
2018-03-01T03:19:49.702Z,96.00
2018-03-01T03:22:17.841Z,96.30
2018-03-01T03:24:45.997Z,96.50
2018-03-01T03:27:14.124Z,96.70
2018-03-01T03:29:42.280Z,96.70
2018-03-01T03:32:10.417Z,96.60
2018-03-01T03:34:38.578Z,96.70
2018-03-01T03:37:06.716Z,96.90
2018-03-01T03:39:34.874Z,96.90
2018-03-01T03:42:03.006Z,96.80
2018-03-01T03:44:31.162Z,96.30
2018-03-01T03:47:00.058Z,96.70
2018-03-01T03:49:28.220Z,96.70
2018-03-01T03:51:57.117Z,96.80
2018-03-01T03:54:25.288Z,96.70
2018-03-01T03:56:54.186Z,96.70
2018-03-01T03:59:22.341Z,96.70
2018-03-01T04:01:51.239Z,96.70
2018-03-01T04:04:19.394Z,96.60
2018-03-01T04:06:47.526Z,96.60
2018-03-01T04:09:15.680Z,96.70
2018-03-01T04:11:43.809Z,96.70
2018-03-01T04:14:11.985Z,96.70
2018-03-01T04:16:40.117Z,97.00
2018-03-01T04:19:08.255Z,97.00
2018-03-01T04:21:36.404Z,97.00
2018-03-01T04:24:04.543Z,96.90
2018-03-01T04:26:32.702Z,96.90
2018-03-01T04:29:00.833Z,96.90
2018-03-01T04:31:28.993Z,96.80
2018-03-01T04:33:57.125Z,96.70
2018-03-01T04:36:25.276Z,96.70
2018-03-01T04:38:53.413Z,96.80
2018-03-01T04:41:21.577Z,96.80
2018-03-01T04:43:49.713Z,96.90
2018-03-01T04:46:17.876Z,96.40
2018-03-01T04:48:46.015Z,97.00
2018-03-01T04:51:14.169Z,97.10
2018-03-01T04:53:42.316Z,97.00
2018-03-01T04:56:10.470Z,97.00
2018-03-01T04:58:38.606Z,97.20
2018-03-01T05:01:06.760Z,96.50
2018-03-01T05:03:34.895Z,97.30
2018-03-01T05:06:03.057Z,96.90
2018-03-01T05:08:31.194Z,97.70
2018-03-01T05:10:59.370Z,97.30
2018-03-01T05:13:27.523Z,98.00
2018-03-01T05:15:55.681Z,97.90
2018-03-01T05:18:23.814Z,98.00
2018-03-01T05:20:51.973Z,98.10
2018-03-01T05:23:20.112Z,98.20
2018-03-01T05:25:48.288Z,98.10
2018-03-01T05:28:16.425Z,98.10
2018-03-01T05:30:44.563Z,98.10
2018-03-01T05:33:12.724Z,98.10
2018-03-01T05:35:40.862Z,98.20
2018-03-01T05:38:09.021Z,98.20
2018-03-01T05:40:37.156Z,98.30
2018-03-01T05:43:05.379Z,98.20
2018-03-01T05:45:33.523Z,98.60
2018-03-01T05:48:01.677Z,98.50
2018-03-01T05:50:29.815Z,98.00
2018-03-01T05:52:57.975Z,98.30
2018-03-01T05:55:26.105Z,98.20
2018-03-01T05:57:54.262Z,98.00
2018-03-01T06:00:22.396Z,97.30
2018-03-01T06:02:50.559Z,97.20
2018-03-01T06:05:18.693Z,97.00
2018-03-01T06:07:46.859Z,96.70
2018-03-01T06:10:14.993Z,97.50
2018-03-01T06:12:43.166Z,97.80
2018-03-01T06:15:11.297Z,97.90
2018-03-01T06:17:39.483Z,97.90
2018-03-01T06:20:07.622Z,97.60
2018-03-01T06:22:35.790Z,98.30
2018-03-01T06:25:03.924Z,98.70
2018-03-01T06:27:32.086Z,98.30
2018-03-01T06:30:00.221Z,98.40
2018-03-01T06:32:28.377Z,98.70
2018-03-01T06:34:56.513Z,98.90
2018-03-01T06:37:24.687Z,99.00
2018-03-01T06:39:52.820Z,99.10
2018-03-01T06:42:20.958Z,99.20
2018-03-01T06:44:49.118Z,99.90
2018-03-01T06:47:17.250Z,99.10
2018-03-01T06:49:45.433Z,99.60
2018-03-01T06:52:13.565Z,99.50
2018-03-01T06:54:41.697Z,99.30
2018-03-01T06:57:09.876Z,99.10
2018-03-01T06:59:38.030Z,98.90
2018-03-01T07:02:06.162Z,98.70
2018-03-01T07:04:34.324Z,98.80
2018-03-01T07:09:36.933Z,98.10
2018-03-01T07:12:05.085Z,97.80
2018-03-01T07:14:33.256Z,97.80
2018-03-01T07:17:01.389Z,97.80
2018-03-01T07:19:29.545Z,97.40
2018-03-01T07:21:57.677Z,96.90
2018-03-01T07:24:25.839Z,96.50
2018-03-01T07:26:53.969Z,96.10
2018-03-01T07:29:22.124Z,95.80
2018-03-01T07:31:50.261Z,95.90
2018-03-01T07:34:18.438Z,95.90
2018-03-01T07:36:46.574Z,95.90
2018-03-01T07:39:14.731Z,95.90
2018-03-01T07:41:42.857Z,95.80
2018-03-01T07:44:11.018Z,95.60
2018-03-01T07:46:39.157Z,95.50
2018-03-01T07:49:07.309Z,95.50
2018-03-01T07:51:35.438Z,95.20
2018-03-01T07:54:03.610Z,95.30
2018-03-01T07:56:31.732Z,95.00
2018-03-01T07:58:59.885Z,94.80
2018-03-01T08:01:28.013Z,94.70
2018-03-01T08:03:56.161Z,94.20
2018-03-01T08:06:24.284Z,94.20
2018-03-01T08:08:52.438Z,94.30
2018-03-01T08:11:20.575Z,94.30
2018-03-01T08:13:48.737Z,94.40
2018-03-01T08:16:16.856Z,94.30
2018-03-01T08:18:45.025Z,93.70
2018-03-01T08:21:13.169Z,93.50
2018-03-01T08:23:41.330Z,93.20
2018-03-01T08:26:09.461Z,92.40
2018-03-01T08:28:37.621Z,92.90
2018-03-01T08:31:05.752Z,92.10
2018-03-01T08:33:33.914Z,91.20
2018-03-01T08:36:02.050Z,90.40
2018-03-01T08:38:30.210Z,90.00
2018-03-01T08:40:58.338Z,89.50
2018-03-01T08:43:26.505Z,88.90
2018-03-01T08:45:54.637Z,90.00
2018-03-01T08:48:22.790Z,88.20
2018-03-01T08:50:50.934Z,87.40
2018-03-01T08:53:19.104Z,86.60
2018-03-01T08:55:47.266Z,86.20
2018-03-01T08:58:15.425Z,87.10
2018-03-01T09:00:43.577Z,84.90
2018-03-01T09:03:11.707Z,83.40
2018-03-01T09:05:39.852Z,83.00
2018-03-01T09:08:08.017Z,83.20
2018-03-01T09:10:36.157Z,82.30
2018-03-01T09:13:04.309Z,81.10
2018-03-01T09:15:32.441Z,81.50
2018-03-01T09:18:00.603Z,82.10
2018-03-01T09:20:28.725Z,81.50
2018-03-01T09:22:56.881Z,81.40
2018-03-01T09:25:25.001Z,81.70
2018-03-01T09:27:53.166Z,82.40
2018-03-01T09:30:21.296Z,81.90
2018-03-01T09:32:50.202Z,81.90
2018-03-01T09:35:18.368Z,81.90
2018-03-01T09:37:46.494Z,81.80
2018-03-01T09:40:14.661Z,81.50
2018-03-01T09:42:42.792Z,80.90
2018-03-01T09:45:10.944Z,80.20
2018-03-01T09:47:39.078Z,80.70
2018-03-01T09:50:07.229Z,80.80
2018-03-01T09:52:35.384Z,80.60
2018-03-01T09:55:03.541Z,81.80
2018-03-01T09:57:31.676Z,81.60
2018-03-01T09:59:59.843Z,81.30
2018-03-01T10:02:28.757Z,81.60
2018-03-01T10:04:56.929Z,81.40
2018-03-01T10:07:25.058Z,82.40
2018-03-01T10:09:53.210Z,81.80
2018-03-01T10:12:21.341Z,81.70
2018-03-01T10:14:49.527Z,81.10
2018-03-01T10:17:17.666Z,81.90
2018-03-01T10:19:45.863Z,81.40
2018-03-01T10:22:14.011Z,82.20
2018-03-01T10:24:42.958Z,82.50
2018-03-01T10:27:11.088Z,82.10
2018-03-01T10:29:45.735Z,82.40
2018-03-01T10:32:13.870Z,82.20
2018-03-01T10:34:42.032Z,81.70
2018-03-01T10:37:10.160Z,81.80
2018-03-01T10:39:38.309Z,82.20
2018-03-01T10:42:06.439Z,83.40
2018-03-01T10:44:34.597Z,84.50
2018-03-01T10:47:02.724Z,84.00
2018-03-01T10:49:30.888Z,83.30
2018-03-01T10:51:59.030Z,84.10
2018-03-01T10:54:27.190Z,83.50
2018-03-01T10:56:55.317Z,84.90
2018-03-01T10:59:24.259Z,84.60
2018-03-01T11:01:52.392Z,84.80
2018-03-01T11:04:20.574Z,83.70
2018-03-01T11:06:48.695Z,83.90
2018-03-01T11:09:16.895Z,83.90
2018-03-01T11:11:45.800Z,84.00
2018-03-01T11:14:13.964Z,84.00
2018-03-01T11:16:42.855Z,83.90
2018-03-01T11:19:11.073Z,83.90
2018-03-01T11:21:39.210Z,83.60
2018-03-01T11:24:07.373Z,84.20
2018-03-01T11:26:36.293Z,84.10
2018-03-01T11:29:04.454Z,84.10
2018-03-01T11:31:32.586Z,84.50
2018-03-01T11:34:00.736Z,84.90
2018-03-01T11:36:28.869Z,83.90
2018-03-01T11:38:57.073Z,81.80
2018-03-01T11:41:25.978Z,82.90
2018-03-01T11:43:54.144Z,82.80
2018-03-01T11:46:22.286Z,82.80
2018-03-01T11:48:50.437Z,82.80
2018-03-01T11:51:18.573Z,82.60
2018-03-01T11:53:46.795Z,83.70
2018-03-01T11:56:15.715Z,84.70
2018-03-01T11:58:43.900Z,84.90
2018-03-01T12:01:12.033Z,82.90
2018-03-01T12:03:40.214Z,84.10
2018-03-01T12:06:08.402Z,83.90
2018-03-01T12:08:36.547Z,84.00
2018-03-01T12:11:04.720Z,83.60
2018-03-01T12:13:32.864Z,84.60
2018-03-01T12:18:35.523Z,84.10
2018-03-01T12:21:03.694Z,84.20
2018-03-01T12:23:31.851Z,84.30
2018-03-01T12:26:00.030Z,84.60
2018-03-01T12:28:28.179Z,84.80
2018-03-01T12:30:56.342Z,84.50
2018-03-01T12:33:24.474Z,83.80
2018-03-01T12:35:52.774Z,83.50
2018-03-01T12:38:20.963Z,84.60
2018-03-01T12:40:49.124Z,84.80
2018-03-01T12:43:17.267Z,85.30
2018-03-01T12:45:45.503Z,85.50
2018-03-01T12:48:14.418Z,85.40
2018-03-01T12:50:42.605Z,85.40
2018-03-01T12:53:10.762Z,84.70
2018-03-01T12:55:38.939Z,85.50
2018-03-01T12:58:07.091Z,85.10
2018-03-01T13:00:36.042Z,86.10
2018-03-01T13:03:04.187Z,86.70
2018-03-01T13:05:32.416Z,85.90
2018-03-01T13:08:00.565Z,85.90
2018-03-01T13:10:28.989Z,86.80
2018-03-01T13:12:58.068Z,87.50
2018-03-01T13:15:26.292Z,86.80
2018-03-01T13:17:54.441Z,86.80
2018-03-01T13:20:23.554Z,88.10
2018-03-01T13:22:51.704Z,87.90
2018-03-01T13:25:19.899Z,86.90
2018-03-01T13:27:48.037Z,86.90
2018-03-01T13:30:17.748Z,86.80
2018-03-01T13:33:01.549Z,87.60
2018-03-01T13:35:30.160Z,86.60
2018-03-01T13:37:58.352Z,86.90
2018-03-01T13:40:27.302Z,86.80
2018-03-01T13:42:56.312Z,86.70
2018-03-01T13:45:24.462Z,87.10
2018-03-01T13:48:03.325Z,86.70
2018-03-01T13:50:31.450Z,86.00
2018-03-01T13:52:59.612Z,85.10
2018-03-01T13:55:27.739Z,85.50
2018-03-01T13:57:55.914Z,85.90
2018-03-01T14:00:24.063Z,85.70
2018-03-01T14:02:52.272Z,86.10
2018-03-01T14:05:20.391Z,86.50
2018-03-01T14:07:51.002Z,86.10
2018-03-01T14:10:19.166Z,85.60
2018-03-01T14:12:53.020Z,85.70
2018-03-01T14:15:21.966Z,85.00
2018-03-01T14:18:01.983Z,85.20
2018-03-01T14:23:49.545Z,84.80
2018-03-01T14:26:21.122Z,84.60
2018-03-01T14:29:07.827Z,84.80
2018-03-01T14:31:35.974Z,84.80
2018-03-01T14:34:04.187Z,84.50
2018-03-01T14:36:32.318Z,84.60
2018-03-01T14:39:00.535Z,83.90
2018-03-01T14:41:28.663Z,84.30
2018-03-01T14:43:56.819Z,84.30
2018-03-01T14:46:24.951Z,84.30
2018-03-01T14:48:53.154Z,84.10
2018-03-01T14:51:21.282Z,83.60
2018-03-01T14:53:49.442Z,83.30
2018-03-01T14:56:17.574Z,84.20
2018-03-01T14:58:45.725Z,83.90
2018-03-01T15:01:13.937Z,83.70
2018-03-01T15:03:42.128Z,83.60
2018-03-01T15:06:10.299Z,83.80
2018-03-01T15:08:38.497Z,83.80
2018-03-01T15:11:06.646Z,83.90
2018-03-01T15:13:34.786Z,84.50
2018-03-01T15:16:02.956Z,84.30
2018-03-01T15:18:31.149Z,84.20
2018-03-01T15:20:59.286Z,84.90
2018-03-01T15:23:27.422Z,84.10
2018-03-01T15:25:55.583Z,84.50
2018-03-01T15:28:23.738Z,84.50
2018-03-01T15:30:51.912Z,85.20
2018-03-01T15:33:20.052Z,85.10
2018-03-01T15:35:48.210Z,84.70
2018-03-01T15:38:16.338Z,85.30
2018-03-01T15:40:44.481Z,85.90
2018-03-01T15:43:12.606Z,85.80
2018-03-01T15:45:40.770Z,86.30
2018-03-01T15:48:08.897Z,86.80
2018-03-01T15:50:37.081Z,86.80
2018-03-01T15:53:05.201Z,86.80
2018-03-01T15:55:33.365Z,86.90
2018-03-01T15:58:01.517Z,87.30
2018-03-01T16:00:29.698Z,87.90
2018-03-01T16:02:57.880Z,88.70
2018-03-01T16:05:26.080Z,88.90
2018-03-01T16:07:54.213Z,89.10
2018-03-01T16:10:22.382Z,90.00
2018-03-01T16:12:50.555Z,89.70
2018-03-01T16:15:18.722Z,90.00
2018-03-01T16:17:46.883Z,90.10
2018-03-01T16:20:15.018Z,90.30
2018-03-01T16:22:43.197Z,90.30
2018-03-01T16:25:12.111Z,90.60
2018-03-01T16:27:40.257Z,90.60
2018-03-01T16:30:08.407Z,90.70
2018-03-01T16:32:36.600Z,90.80
2018-03-01T16:35:04.756Z,91.00
2018-03-01T16:37:32.974Z,91.30
2018-03-01T16:40:01.131Z,91.60
2018-03-01T16:42:29.300Z,91.50
2018-03-01T16:44:57.428Z,91.70
2018-03-01T16:47:25.664Z,92.10
2018-03-01T16:49:53.796Z,92.30
2018-03-01T16:52:21.967Z,92.50
2018-03-01T16:54:50.120Z,92.70
2018-03-01T16:57:18.265Z,93.00
2018-03-01T16:59:46.413Z,93.00
2018-03-01T17:02:14.667Z,93.10
2018-03-01T17:04:42.872Z,93.10
2018-03-01T17:07:11.798Z,93.40
2018-03-01T17:09:39.981Z,93.30
2018-03-01T17:12:08.185Z,93.30
2018-03-01T17:14:36.329Z,93.30
2018-03-01T17:17:04.506Z,93.20
2018-03-01T17:19:32.701Z,93.20
2018-03-01T17:22:00.830Z,93.10
2018-03-01T17:24:28.977Z,93.20
2018-03-01T17:26:57.155Z,93.20
2018-03-01T17:29:25.328Z,93.20
2018-03-01T17:31:53.458Z,93.60
2018-03-01T17:34:21.609Z,93.90
2018-03-01T17:36:49.749Z,94.10
2018-03-01T17:39:17.912Z,94.10
2018-03-01T17:41:46.048Z,94.30
2018-03-01T17:44:14.208Z,94.10
2018-03-01T17:46:42.341Z,94.10
2018-03-01T17:49:10.551Z,94.20
2018-03-01T17:51:38.826Z,94.40
2018-03-01T17:54:07.112Z,94.40
2018-03-01T17:56:35.290Z,94.60
2018-03-01T17:59:03.450Z,94.70
2018-03-01T18:01:31.584Z,94.70
2018-03-01T18:03:59.735Z,94.70
2018-03-01T18:06:27.868Z,94.60
2018-03-01T18:08:56.127Z,94.60
2018-03-01T18:11:25.172Z,94.90
2018-03-01T18:13:53.573Z,94.70
2018-03-01T18:16:22.474Z,95.00
2018-03-01T18:18:51.821Z,95.00
2018-03-01T18:21:20.688Z,95.10
2018-03-01T18:23:48.847Z,95.20
2018-03-01T18:26:17.812Z,95.40
2018-03-01T18:28:46.192Z,95.30
2018-03-01T18:31:15.276Z,95.20
2018-03-01T18:33:43.678Z,95.50
2018-03-01T18:36:11.909Z,95.40
2018-03-01T18:38:40.218Z,95.70
2018-03-01T18:41:08.479Z,95.80
2018-03-01T18:43:36.688Z,96.10
2018-03-01T18:46:04.862Z,96.30
2018-03-01T18:48:34.196Z,96.60
2018-03-01T18:51:02.599Z,96.50
2018-03-01T18:53:30.734Z,96.60
2018-03-01T18:55:58.886Z,96.70
2018-03-01T18:58:27.344Z,96.80
2018-03-01T19:00:56.696Z,97.20
2018-03-01T19:03:24.867Z,96.80
2018-03-01T19:05:53.291Z,96.90
2018-03-01T19:08:21.546Z,97.00
2018-03-01T19:10:49.703Z,97.10
2018-03-01T19:13:17.833Z,97.20
2018-03-01T19:15:46.197Z,97.30
2018-03-01T19:18:14.372Z,97.60
2018-03-01T19:20:42.665Z,97.50
2018-03-01T19:23:10.835Z,97.40
2018-03-01T19:25:38.976Z,97.50
2018-03-01T19:28:07.134Z,97.20
2018-03-01T19:30:35.300Z,97.20
2018-03-01T19:33:03.511Z,97.10
2018-03-01T19:35:31.950Z,97.20
2018-03-01T19:38:00.525Z,97.30
2018-03-01T19:40:29.500Z,97.40
2018-03-01T19:42:57.674Z,97.40
2018-03-01T19:45:25.801Z,97.50
2018-03-01T19:47:53.957Z,97.30
2018-03-01T19:50:22.106Z,97.60
2018-03-01T19:52:51.048Z,97.80
2018-03-01T19:55:19.178Z,97.90
2018-03-01T19:57:48.095Z,97.90
2018-03-01T20:00:16.244Z,97.70
2018-03-01T20:02:44.414Z,97.80
2018-03-01T20:05:12.545Z,97.70
2018-03-01T20:07:40.688Z,97.80
2018-03-01T20:10:08.817Z,97.70
2018-03-01T20:12:37.771Z,97.30
2018-03-01T20:15:05.928Z,97.50
2018-03-01T20:17:34.079Z,97.80
2018-03-01T20:20:02.219Z,97.40
2018-03-01T20:22:30.424Z,97.40
2018-03-01T20:24:59.312Z,97.20
2018-03-01T20:27:27.468Z,97.30
2018-03-01T20:29:56.399Z,97.20
2018-03-01T20:32:24.714Z,97.20
2018-03-01T20:34:52.872Z,97.20
2018-03-01T20:37:21.027Z,97.10
2018-03-01T20:39:49.162Z,97.10
2018-03-01T20:42:17.323Z,97.00
2018-03-01T20:44:45.454Z,96.90
2018-03-01T20:47:13.614Z,96.90
2018-03-01T20:49:41.750Z,96.90
2018-03-01T20:52:09.909Z,96.90
2018-03-01T20:54:38.041Z,96.70
2018-03-01T20:57:06.208Z,96.60
2018-03-01T20:59:34.354Z,96.50
2018-03-01T21:02:02.487Z,96.20
2018-03-01T21:04:31.413Z,96.20
2018-03-01T21:06:59.553Z,96.10
2018-03-01T21:09:36.519Z,96.00
2018-03-01T21:12:04.651Z,96.00
2018-03-01T21:14:32.801Z,95.90
2018-03-01T21:17:00.930Z,95.70
2018-03-01T21:19:29.083Z,95.70
2018-03-01T21:21:57.210Z,95.70
2018-03-01T21:24:25.370Z,95.50
2018-03-01T21:26:53.510Z,95.50
2018-03-01T21:29:21.694Z,95.40
2018-03-01T21:31:49.825Z,95.30
2018-03-01T21:34:17.977Z,95.40
2018-03-01T21:36:46.107Z,95.20
2018-03-01T21:39:14.269Z,95.20
2018-03-01T21:41:42.395Z,95.10
2018-03-01T21:44:10.558Z,94.90
2018-03-01T21:46:38.689Z,94.90
2018-03-01T21:49:06.858Z,94.90
2018-03-01T21:51:35.748Z,94.90
2018-03-01T21:54:03.914Z,94.80
2018-03-01T21:56:32.037Z,94.80
2018-03-01T21:59:00.192Z,94.80
2018-03-01T22:01:28.313Z,94.80
2018-03-01T22:03:56.466Z,95.00
2018-03-01T22:06:24.614Z,95.00
2018-03-01T22:08:52.770Z,95.30
2018-03-01T22:11:20.893Z,94.90
2018-03-01T22:13:49.054Z,94.90
2018-03-01T22:16:17.182Z,95.00
2018-03-01T22:18:45.348Z,94.90
2018-03-01T22:21:13.481Z,95.00
2018-03-01T22:23:41.642Z,94.80
2018-03-01T22:26:09.775Z,94.70
2018-03-01T22:28:37.934Z,94.90
2018-03-01T22:31:06.059Z,94.80
2018-03-01T22:33:34.209Z,94.90
2018-03-01T22:36:02.343Z,94.90
2018-03-01T22:38:30.497Z,94.80
2018-03-01T22:40:58.626Z,94.90
2018-03-01T22:43:26.781Z,94.80
2018-03-01T22:45:54.910Z,94.80
2018-03-01T22:48:23.068Z,94.90
2018-03-01T22:50:51.199Z,94.80
2018-03-01T22:53:19.353Z,94.90
2018-03-01T22:55:47.481Z,94.80
2018-03-01T22:58:15.651Z,94.80
2018-03-01T23:00:53.313Z,94.80
2018-03-01T23:03:21.472Z,94.80
2018-03-01T23:05:50.367Z,94.90
2018-03-01T23:08:18.538Z,95.00
2018-03-01T23:10:47.428Z,95.00
2018-03-01T23:13:15.592Z,94.90
2018-03-01T23:15:43.719Z,95.10
2018-03-01T23:18:11.888Z,95.00
2018-03-01T23:20:40.022Z,95.00
2018-03-01T23:23:08.149Z,94.90
2018-03-01T23:25:36.305Z,94.90
2018-03-01T23:28:04.438Z,95.00
2018-03-01T23:30:32.589Z,94.90
2018-03-01T23:33:00.720Z,95.00
2018-03-01T23:35:28.879Z,95.00
2018-03-01T23:37:57.014Z,95.00
2018-03-01T23:40:25.178Z,94.90
2018-03-01T23:42:53.309Z,94.80
2018-03-01T23:45:21.480Z,95.00
2018-03-01T23:47:49.607Z,94.90
2018-03-01T23:50:17.757Z,94.80
2018-03-01T23:52:45.883Z,94.90
2018-03-01T23:55:14.037Z,95.00
2018-03-01T23:57:42.173Z,94.70
